Time;durP1;ratioP1;P1;durP2;ratioP2;P2;SDS_P1;SDS_P2;PMS_P1;PMS_P2;Temp;Humidity;BMP_temperature;BMP_pressure;BME280_temperature;BME280_humidity;BME280_pressure;Samples;Min_cycle;Max_cycle;Signal;HPM_P1;HPM_P2
2022/12/24 00:01:16;;;;;;;17.30;10.33;;;;;;;0.26;nan;-23822.56;5014416;28;20548;-70
2022/12/24 00:03:41;;;;;;;16.33;9.17;;;;;;;0.39;nan;-23826.13;5013107;28;20288;-70
2022/12/24 00:06:09;;;;;;;19.47;9.43;;;;;;;0.13;nan;-23818.69;5014012;28;20254;-70
2022/12/24 00:08:35;;;;;;;21.50;11.00;;;;;;;0.14;nan;-23819.13;5012443;28;20163;-70
2022/12/24 00:11:00;;;;;;;25.93;9.77;;;;;;;0.01;nan;-23815.41;5014043;28;20216;-70
2022/12/24 00:13:26;;;;;;;10.47;6.80;;;;;;;0.70;nan;-23835.00;5015799;28;20241;-70
2022/12/24 00:15:52;;;;;;;16.03;8.57;;;;;;;0.37;nan;-23825.56;5013825;28;20187;-70
2022/12/24 00:18:17;;;;;;;12.70;8.03;;;;;;;0.58;nan;-23831.56;5014364;28;20179;-70
2022/12/24 00:20:47;;;;;;;20.73;9.80;;;;;;;0.19;nan;-23820.53;5012575;28;20199;-70
2022/12/24 00:23:13;;;;;;;14.07;9.40;;;;;;;0.50;nan;-23829.13;5013908;28;20195;-70
2022/12/24 00:25:38;;;;;;;15.47;7.47;;;;;;;0.52;nan;-23829.84;5013713;28;20618;-70
2022/12/24 00:28:04;;;;;;;15.50;8.17;;;;;;;0.00;nan;-23815.25;5013932;28;20217;-70
2022/12/24 00:30:29;;;;;;;19.97;8.27;;;;;;;0.44;nan;-23827.56;5013699;28;20192;-70
2022/12/24 00:32:55;;;;;;;13.87;8.10;;;;;;;0.34;nan;-23824.84;5013725;28;20179;-71
2022/12/24 00:35:21;;;;;;;10.20;7.77;;;;;;;-0.05;nan;-23813.69;5013158;28;20195;-70
2022/12/24 00:37:47;;;;;;;15.30;7.87;;;;;;;-0.02;nan;-23814.69;5013613;28;20178;-70
2022/12/24 00:40:13;;;;;;;14.37;8.80;;;;;;;0.30;nan;-23823.69;5012074;28;20185;-70
2022/12/24 00:42:39;;;;;;;13.57;8.00;;;;;;;0.27;nan;-23822.69;5013504;28;20179;-70
2022/12/24 00:45:04;;;;;;;11.53;9.03;;;;;;;0.31;nan;-23823.84;5013621;28;20232;-70
2022/12/24 00:47:30;;;;;;;25.17;8.60;;;;;;;-0.07;nan;-23813.25;5013437;28;20540;-70
2022/12/24 00:49:55;;;;;;;15.00;9.30;;;;;;;-0.14;nan;-23811.09;5018461;28;20608;-70
2022/12/24 00:52:21;;;;;;;11.83;7.43;;;;;;;-0.12;nan;-23811.81;5013043;28;20172;-70
2022/12/24 00:54:46;;;;;;;14.60;9.10;;;;;;;-0.20;nan;-23809.38;5013212;28;20183;-70
2022/12/24 00:57:11;;;;;;;13.47;8.33;;;;;;;0.18;nan;-23820.13;5013011;28;20180;-70
2022/12/24 00:59:37;;;;;;;17.27;8.67;;;;;;;-0.26;nan;-23807.81;5014387;28;20236;-70
2022/12/24 01:02:02;;;;;;;14.90;8.17;;;;;;;0.24;nan;-23821.97;5017041;28;20185;-70
2022/12/24 01:07:12;;;;;;;13.47;8.10;;;;;;;-0.01;nan;-23814.97;5013147;28;20222;-70
2022/12/24 01:09:37;;;;;;;18.73;9.27;;;;;;;-0.06;nan;-23813.53;5012452;28;20201;-70
2022/12/24 01:12:02;;;;;;;16.43;8.23;;;;;;;0.13;nan;-23818.69;5013230;28;20187;-70
2022/12/24 01:14:28;;;;;;;19.60;9.47;;;;;;;0.47;nan;-23828.41;5013162;28;20258;-70
2022/12/24 01:16:53;;;;;;;16.00;9.30;;;;;;;-0.04;nan;-23814.09;5012749;28;20671;-70
2022/12/24 01:19:19;;;;;;;16.70;8.17;;;;;;;0.52;nan;-23829.84;5012861;28;20169;-70
2022/12/24 01:21:44;;;;;;;16.90;10.23;;;;;;;0.17;nan;-23819.97;5012493;28;20171;-70
2022/12/24 01:24:14;;;;;;;11.60;6.57;;;;;;;0.54;nan;-23830.44;5015310;28;20639;-70
2022/12/24 01:26:40;;;;;;;13.80;9.03;;;;;;;0.55;nan;-23830.56;5013622;28;20183;-70
2022/12/24 01:29:05;;;;;;;18.43;8.53;;;;;;;0.47;nan;-23828.41;5012707;28;20715;-70
2022/12/24 01:31:30;;;;;;;22.87;10.93;;;;;;;0.31;nan;-23824.00;5012350;28;20241;-70
2022/12/24 01:33:56;;;;;;;15.07;9.43;;;;;;;0.42;nan;-23827.00;5011810;28;20190;-70
2022/12/24 01:36:21;;;;;;;14.13;8.30;;;;;;;0.24;nan;-23821.97;5012461;28;20190;-70
2022/12/24 01:38:47;;;;;;;11.17;6.97;;;;;;;0.08;nan;-23817.25;5012810;28;20167;-70
2022/12/24 01:44:25;;;;;;;16.20;7.03;;;;;;;0.50;nan;-23829.28;5012497;28;20185;-70
2022/12/24 01:46:59;;;;;;;15.40;7.43;;;;;;;0.42;nan;-23827.00;5012155;28;20171;-70
2022/12/24 01:49:24;;;;;;;11.60;8.17;;;;;;;0.39;nan;-23826.13;5012722;28;20232;-70
2022/12/24 01:52:19;;;;;;;14.93;8.00;;;;;;;0.40;nan;-23826.41;5012330;28;20261;-69
2022/12/24 01:55:00;;;;;;;20.03;7.97;;;;;;;0.36;nan;-23825.28;5012398;28;20180;-69
2022/12/24 01:57:40;;;;;;;12.87;7.77;;;;;;;-0.16;nan;-23810.53;5012610;28;20166;-70
2022/12/24 02:00:10;;;;;;;19.07;7.73;;;;;;;0.28;nan;-23822.97;5014704;28;20326;-70
2022/12/24 02:02:42;;;;;;;9.37;6.70;;;;;;;0.22;nan;-23821.25;5014336;28;20715;-70
2022/12/24 02:05:14;;;;;;;15.90;9.00;;;;;;;-0.09;nan;-23812.53;5011971;28;20667;-70
2022/12/24 02:07:41;;;;;;;19.90;9.30;;;;;;;0.20;nan;-23820.69;5011874;28;20169;-70
2022/12/24 02:10:10;;;;;;;9.53;6.50;;;;;;;0.03;nan;-23815.81;5011926;28;20191;-70
2022/12/24 02:12:37;;;;;;;18.23;8.13;;;;;;;0.22;nan;-23821.41;5012113;28;20180;-69
2022/12/24 02:15:06;;;;;;;20.50;10.00;;;;;;;0.12;nan;-23818.41;5012089;28;20594;-70
2022/12/24 02:18:04;;;;;;;16.00;7.37;;;;;;;0.07;nan;-23816.97;5011999;28;20186;-70
2022/12/24 02:20:38;;;;;;;26.73;8.13;;;;;;;0.09;nan;-23817.53;5011681;28;20233;-70
2022/12/24 02:23:28;;;;;;;11.80;7.97;;;;;;;0.00;nan;-23815.09;5012320;28;20185;-70
2022/12/24 02:26:16;;;;;;;16.77;7.97;;;;;;;-0.02;nan;-23814.69;5011805;28;20225;-70
2022/12/24 02:29:08;;;;;;;20.63;8.07;;;;;;;-0.40;nan;-23803.78;5011924;28;20180;-70
2022/12/24 02:31:39;;;;;;;14.20;10.07;;;;;;;0.03;nan;-23815.81;5012098;28;20208;-70
2022/12/24 02:34:32;;;;;;;16.17;9.23;;;;;;;-0.01;nan;-23814.97;5011831;28;20243;-70
2022/12/24 02:37:05;;;;;;;13.27;7.23;;;;;;;-0.45;nan;-23802.34;5017536;28;20192;-70
2022/12/24 02:39:57;;;;;;;17.27;8.53;;;;;;;-0.19;nan;-23809.66;5014173;28;20189;-70
2022/12/24 02:42:28;;;;;;;18.60;8.03;;;;;;;-0.26;nan;-23807.81;4997459;28;20707;-70
2022/12/24 02:45:19;;;;;;;16.23;6.47;;;;;;;0.20;nan;-23820.69;5017273;28;20228;-70
2022/12/24 02:47:46;;;;;;;23.53;8.17;;;;;;;-0.38;nan;-23804.22;5015184;28;20284;-70
2022/12/24 02:50:14;;;;;;;16.17;7.03;;;;;;;0.05;nan;-23816.41;5014246;28;20244;-70
2022/12/24 02:52:43;;;;;;;15.13;8.90;;;;;;;-0.81;nan;-23792.19;5015465;28;20245;-70
2022/12/24 02:55:09;;;;;;;20.67;9.07;;;;;;;0.01;nan;-23815.41;5015502;28;20173;-70
2022/12/24 02:57:55;;;;;;;16.03;7.83;;;;;;;-0.04;nan;-23814.09;5015246;28;20648;-70
2022/12/24 03:00:23;;;;;;;19.83;7.80;;;;;;;-0.17;nan;-23810.38;5014112;28;20184;-70
2022/12/24 03:02:54;;;;;;;12.13;7.33;;;;;;;-0.15;nan;-23810.97;5015108;28;20191;-69
2022/12/24 03:05:37;;;;;;;13.03;7.93;;;;;;;-0.19;nan;-23809.81;5015111;28;20701;-70
2022/12/24 03:08:14;;;;;;;16.83;6.97;;;;;;;-0.26;nan;-23807.66;5014813;28;20188;-70
2022/12/24 03:11:01;;;;;;;17.07;7.83;;;;;;;-0.58;nan;-23798.78;5015318;28;20254;-70
2022/12/24 03:13:28;;;;;;;10.43;6.70;;;;;;;-0.57;nan;-23798.91;4996116;28;20206;-70
2022/12/24 03:15:53;;;;;;;12.17;8.17;;;;;;;-0.72;nan;-23794.63;4995445;28;20248;-70
2022/12/24 03:18:24;;;;;;;18.10;7.67;;;;;;;-0.62;nan;-23797.63;4995478;28;20176;-70
2022/12/24 03:21:30;;;;;;;11.53;7.10;;;;;;;-0.31;nan;-23806.38;4996013;28;20173;-70
2022/12/24 03:23:56;;;;;;;25.10;8.07;;;;;;;-0.76;nan;-23793.47;4973576;28;20182;-70
2022/12/24 03:26:25;;;;;;;12.87;7.27;;;;;;;-0.34;nan;-23805.50;4991289;28;20213;-70
2022/12/24 03:28:51;;;;;;;11.53;8.60;;;;;;;-0.29;nan;-23806.94;4995504;28;20173;-70
2022/12/24 03:31:17;;;;;;;10.00;7.37;;;;;;;-0.49;nan;-23801.34;4995224;28;20228;-70
2022/12/24 03:33:43;;;;;;;10.37;7.60;;;;;;;-0.77;nan;-23793.19;4995605;28;20173;-70
2022/12/24 03:36:09;;;;;;;13.53;7.83;;;;;;;-0.58;nan;-23798.63;4995337;28;20183;-69
2022/12/24 03:38:35;;;;;;;17.20;8.60;;;;;;;-0.53;nan;-23800.06;5026548;28;20176;-70
2022/12/24 03:41:00;;;;;;;12.93;6.77;;;;;;;-0.33;nan;-23805.81;5015304;28;20720;-69
2022/12/24 03:43:25;;;;;;;6.87;5.13;;;;;;;-0.34;nan;-23805.38;5013163;28;20192;-70
2022/12/24 03:45:51;;;;;;;9.47;5.87;;;;;;;-0.32;nan;-23806.09;5014663;28;20242;-70
2022/12/24 03:48:16;;;;;;;8.03;4.73;;;;;;;-0.19;nan;-23809.66;5014430;28;20179;-70
2022/12/24 03:50:42;;;;;;;18.30;7.13;;;;;;;-0.66;nan;-23796.34;5016185;28;20184;-70
2022/12/24 03:53:07;;;;;;;8.37;5.57;;;;;;;-0.63;nan;-23797.19;5014905;28;20190;-70
2022/12/24 03:55:32;;;;;;;10.40;6.40;;;;;;;-0.15;nan;-23810.81;5014511;28;20188;-70
2022/12/24 03:57:58;;;;;;;11.53;6.90;;;;;;;-0.15;nan;-23810.81;5014081;28;20210;-69
2022/12/24 04:00:23;;;;;;;15.23;7.33;;;;;;;-0.12;nan;-23811.81;5014404;28;20171;-69
2022/12/24 04:02:49;;;;;;;17.23;7.13;;;;;;;-0.24;nan;-23808.38;5014134;28;20169;-70
2022/12/24 04:05:17;;;;;;;11.53;7.23;;;;;;;-0.25;nan;-23808.09;5014131;28;20641;-70
2022/12/24 04:07:43;;;;;;;13.63;6.83;;;;;;;-0.32;nan;-23806.09;5014356;28;20251;-70
2022/12/24 04:10:09;;;;;;;10.80;6.63;;;;;;;-0.62;nan;-23797.50;5012762;28;20642;-70
2022/12/24 04:12:35;;;;;;;13.63;7.20;;;;;;;-0.49;nan;-23801.34;5014388;28;20201;-70
2022/12/24 04:15:00;;;;;;;16.27;7.40;;;;;;;-0.15;nan;-23810.81;5013954;28;20644;-70
2022/12/24 04:17:26;;;;;;;13.37;8.23;;;;;;;-0.30;nan;-23806.66;5014081;28;20628;-70
2022/12/24 04:19:51;;;;;;;14.13;6.90;;;;;;;-0.30;nan;-23806.66;5013870;28;20182;-70
2022/12/24 04:22:17;;;;;;;13.17;7.90;;;;;;;-0.53;nan;-23800.06;5014059;28;20171;-70
2022/12/24 04:24:43;;;;;;;16.10;6.93;;;;;;;-0.51;nan;-23800.63;5014151;28;20193;-70
2022/12/24 04:27:08;;;;;;;12.07;7.40;;;;;;;-0.61;nan;-23797.78;5018107;28;20185;-70
2022/12/24 04:29:34;;;;;;;16.53;8.23;;;;;;;-0.35;nan;-23805.09;5012277;28;20188;-70
2022/12/24 04:31:59;;;;;;;20.10;8.77;;;;;;;0.20;nan;-23820.69;5013604;28;20184;-70
2022/12/24 04:34:25;;;;;;;13.80;6.93;;;;;;;-0.27;nan;-23807.38;5013351;28;20226;-70
2022/12/24 04:36:51;;;;;;;10.77;7.73;;;;;;;-1.10;nan;-23783.88;5013653;28;20171;-70
2022/12/24 04:39:16;;;;;;;15.47;7.27;;;;;;;-0.30;nan;-23806.50;5013681;28;20174;-70
2022/12/24 04:41:41;;;;;;;16.27;7.13;;;;;;;-0.19;nan;-23809.66;5013567;28;20166;-70
2022/12/24 04:44:08;;;;;;;16.07;8.00;;;;;;;-0.52;nan;-23800.34;5013820;28;20179;-70
2022/12/24 04:46:34;;;;;;;10.50;6.80;;;;;;;-0.64;nan;-23797.06;5013357;28;20210;-70
2022/12/24 04:49:00;;;;;;;14.97;7.57;;;;;;;-0.52;nan;-23800.34;5013778;28;20183;-70
2022/12/24 04:51:26;;;;;;;11.70;8.27;;;;;;;-0.24;nan;-23808.38;5013235;28;20251;-70
2022/12/24 04:53:52;;;;;;;10.87;7.33;;;;;;;-0.37;nan;-23804.50;5013360;28;20188;-70
2022/12/24 04:56:23;;;;;;;10.33;7.47;;;;;;;-0.85;nan;-23791.03;5013255;28;20183;-70
2022/12/24 04:58:49;;;;;;;10.37;6.67;;;;;;;-0.88;nan;-23790.19;5012444;28;20271;-70
2022/12/24 05:01:19;;;;;;;13.33;5.93;;;;;;;-0.85;nan;-23790.91;5013918;28;20692;-69
2022/12/24 05:03:45;;;;;;;16.47;7.93;;;;;;;-0.37;nan;-23804.50;5015102;28;20309;-70
2022/12/24 05:06:14;;;;;;;14.07;8.97;;;;;;;-0.53;nan;-23800.06;5012839;28;20695;-70
2022/12/24 05:08:40;;;;;;;14.67;8.23;;;;;;;-0.59;nan;-23798.50;5017430;28;20190;-70
2022/12/24 05:11:06;;;;;;;15.90;8.23;;;;;;;-0.54;nan;-23799.78;5012846;28;20184;-70
2022/12/24 05:13:32;;;;;;;21.30;7.67;;;;;;;-0.47;nan;-23801.94;5012941;28;20189;-70
2022/12/24 05:15:58;;;;;;;18.53;7.50;;;;;;;-0.51;nan;-23800.78;5013435;28;20639;-70
2022/12/24 05:18:24;;;;;;;12.47;5.97;;;;;;;-0.18;nan;-23810.09;5012997;28;20217;-70
2022/12/24 05:20:49;;;;;;;11.83;7.43;;;;;;;-0.26;nan;-23807.81;5012892;28;20176;-70
2022/12/24 05:28:44;;;;;;;18.63;9.07;;;;;;;-0.19;nan;-23809.66;5012676;28;20498;-70
2022/12/24 05:31:09;;;;;;;17.70;7.37;;;;;;;-0.34;nan;-23805.50;5012820;28;20172;-70
2022/12/24 05:33:35;;;;;;;17.17;7.70;;;;;;;-0.78;nan;-23792.91;5013114;28;20179;-70
2022/12/24 05:36:00;;;;;;;11.90;7.77;;;;;;;-0.85;nan;-23791.03;5012190;28;20731;-70
2022/12/24 05:38:25;;;;;;;22.80;9.13;;;;;;;-0.81;nan;-23792.19;5014753;28;20194;-70
2022/12/24 05:40:51;;;;;;;12.60;7.73;;;;;;;-0.58;nan;-23798.63;5013611;28;20194;-70
2022/12/24 05:43:16;;;;;;;14.33;8.00;;;;;;;-0.93;nan;-23788.88;5016355;28;20209;-71
2022/12/24 05:45:41;;;;;;;13.23;7.77;;;;;;;-0.65;nan;-23796.63;5012298;28;20197;-70
2022/12/24 05:48:07;;;;;;;14.90;7.83;;;;;;;-0.44;nan;-23802.66;5011146;28;20598;-70
2022/12/24 05:50:34;;;;;;;14.33;7.53;;;;;;;-0.46;nan;-23802.06;5012335;28;20192;-70
2022/12/24 05:53:00;;;;;;;19.37;8.50;;;;;;;-0.47;nan;-23801.78;5012533;28;20220;-70
2022/12/24 05:55:25;;;;;;;12.63;7.27;;;;;;;-0.19;nan;-23809.66;5012205;28;20173;-70
2022/12/24 05:57:50;;;;;;;12.67;6.80;;;;;;;-0.01;nan;-23814.97;5012177;28;20180;-70
2022/12/24 06:00:16;;;;;;;12.70;7.50;;;;;;;-0.61;nan;-23797.91;5012027;28;20168;-70
2022/12/24 06:02:41;;;;;;;8.27;6.83;;;;;;;-0.14;nan;-23811.09;5012408;28;20172;-70
2022/12/24 06:05:07;;;;;;;19.27;7.30;;;;;;;-0.55;nan;-23799.63;5012084;28;20618;-70
2022/12/24 06:07:33;;;;;;;19.57;9.43;;;;;;;-0.40;nan;-23803.78;5010687;28;20190;-70
2022/12/24 06:09:59;;;;;;;22.90;7.47;;;;;;;-0.91;nan;-23789.31;5012393;28;20176;-70
2022/12/24 06:12:24;;;;;;;9.20;6.60;;;;;;;-0.86;nan;-23790.59;5011247;28;20262;-70
2022/12/24 06:14:49;;;;;;;11.80;6.27;;;;;;;-0.74;nan;-23794.06;5012026;28;20181;-70
2022/12/24 06:17:15;;;;;;;14.60;6.90;;;;;;;-0.79;nan;-23792.75;5012135;28;20172;-71
2022/12/24 06:19:40;;;;;;;13.83;7.83;;;;;;;-0.90;nan;-23789.59;5011550;28;20175;-70
2022/12/24 06:22:06;;;;;;;14.60;7.60;;;;;;;-0.36;nan;-23804.94;5010410;28;20203;-69
2022/12/24 06:24:31;;;;;;;14.60;7.80;;;;;;;-0.30;nan;-23806.66;5011887;28;20673;-69
2022/12/24 06:26:56;;;;;;;13.70;7.53;;;;;;;-0.65;nan;-23796.63;5012697;28;20185;-69
2022/12/24 06:29:22;;;;;;;18.00;6.97;;;;;;;-0.26;nan;-23807.81;5011753;28;20185;-69
2022/12/24 06:31:47;;;;;;;13.87;8.43;;;;;;;-0.46;nan;-23802.22;5012154;28;20183;-71
2022/12/24 06:34:13;;;;;;;17.77;8.90;;;;;;;-0.04;nan;-23813.97;5011686;28;20227;-71
2022/12/24 06:36:38;;;;;;;14.23;8.57;;;;;;;-0.24;nan;-23808.38;5012001;28;20180;-70
2022/12/24 06:39:03;;;;;;;15.73;8.83;;;;;;;0.31;nan;-23823.84;5011367;28;20174;-71
2022/12/24 06:41:29;;;;;;;16.27;8.50;;;;;;;0.42;nan;-23827.00;5011643;28;20179;-71
2022/12/24 06:43:54;;;;;;;12.93;7.90;;;;;;;0.25;nan;-23822.25;5010102;28;20210;-71
2022/12/24 06:46:20;;;;;;;13.70;7.70;;;;;;;0.64;nan;-23833.28;5011667;28;20245;-70
2022/12/24 06:48:46;;;;;;;14.83;8.17;;;;;;;0.23;nan;-23821.69;5011252;28;20181;-71
2022/12/24 06:51:13;;;;;;;28.80;8.97;;;;;;;0.70;nan;-23835.00;5011737;28;20263;-70
2022/12/24 06:53:38;;;;;;;18.17;8.93;;;;;;;0.25;nan;-23822.13;5011832;28;20556;-70
2022/12/24 06:56:06;;;;;;;22.67;10.33;;;;;;;0.59;nan;-23831.84;5011826;28;20183;-71
2022/12/24 06:58:33;;;;;;;18.43;9.63;;;;;;;0.97;nan;-23842.44;5011466;28;20184;-71
2022/12/24 07:01:04;;;;;;;19.43;11.30;;;;;;;0.69;nan;-23834.72;5011787;28;20176;-71
2022/12/24 07:03:30;;;;;;;18.63;10.77;;;;;;;0.77;nan;-23836.88;5011168;28;20238;-71
2022/12/24 07:05:56;;;;;;;24.20;11.73;;;;;;;1.37;nan;-23853.88;5011426;28;20732;-70
2022/12/24 07:08:21;;;;;;;22.50;13.43;;;;;;;1.12;nan;-23846.88;5011526;28;20303;-70
2022/12/24 07:10:48;;;;;;;20.37;11.43;;;;;;;1.47;nan;-23856.59;5011311;28;20659;-71
2022/12/24 07:13:14;;;;;;;20.93;12.33;;;;;;;1.37;nan;-23853.88;5011722;28;20493;-71
2022/12/24 07:15:39;;;;;;;20.87;11.60;;;;;;;0.53;nan;-23830.13;5011772;28;20179;-71
2022/12/24 07:18:05;;;;;;;24.63;11.53;;;;;;;1.97;nan;-23870.75;5011168;28;20179;-71
2022/12/24 07:20:30;;;;;;;24.20;10.23;;;;;;;2.31;nan;-23880.47;5011681;28;20171;-71
2022/12/24 07:22:55;;;;;;;26.30;10.87;;;;;;;1.95;nan;-23870.16;5011409;28;20214;-71
2022/12/24 07:25:21;;;;;;;20.77;9.80;;;;;;;2.20;nan;-23877.47;5013898;28;20623;-70
2022/12/24 07:27:46;;;;;;;22.60;10.17;;;;;;;2.19;nan;-23877.03;5015233;28;20259;-71
2022/12/24 07:30:12;;;;;;;23.67;10.77;;;;;;;2.33;nan;-23880.88;5014656;28;20176;-71
2022/12/24 07:32:37;;;;;;;29.13;10.43;;;;;;;2.45;nan;-23884.31;5014278;28;20648;-70
2022/12/24 07:35:03;;;;;;;21.53;10.87;;;;;;;2.74;nan;-23892.59;5014987;28;20606;-71
2022/12/24 07:37:28;;;;;;;24.33;9.63;;;;;;;2.97;nan;-23899.16;5015176;28;20168;-72
2022/12/24 07:39:54;;;;;;;22.73;11.37;;;;;;;3.59;nan;-23916.41;5014955;28;20188;-72
2022/12/24 07:42:19;;;;;;;29.23;10.03;;;;;;;3.72;nan;-23920.09;5014551;28;20255;-71
2022/12/24 07:44:44;;;;;;;23.90;10.63;;;;;;;3.97;nan;-23927.22;5014543;28;20191;-72
2022/12/24 07:47:10;;;;;;;23.77;11.27;;;;;;;3.91;nan;-23925.53;5014457;28;20536;-71
2022/12/24 07:49:35;;;;;;;19.00;10.80;;;;;;;4.26;nan;-23935.34;5014829;28;20172;-72
2022/12/24 07:52:01;;;;;;;21.63;11.83;;;;;;;4.81;nan;-23951.00;5014385;28;20172;-71
2022/12/24 07:54:27;;;;;;;22.17;11.57;;;;;;;4.76;nan;-23949.44;5014421;28;20187;-71
2022/12/24 07:56:53;;;;;;;22.93;12.33;;;;;;;4.99;nan;-23955.84;5014209;28;20177;-71
2022/12/24 07:59:19;;;;;;;23.03;11.13;;;;;;;5.37;nan;-23966.66;5017193;28;20643;-71
2022/12/24 08:01:45;;;;;;;21.97;11.37;;;;;;;5.39;nan;-23967.22;5014105;28;20187;-71
2022/12/24 08:04:10;;;;;;;20.63;10.47;;;;;;;5.68;nan;-23975.31;5014219;28;20231;-71
2022/12/24 08:06:36;;;;;;;16.90;10.40;;;;;;;5.69;nan;-23975.75;5014334;28;20243;-72
2022/12/24 08:09:01;;;;;;;19.97;9.60;;;;;;;5.72;nan;-23976.47;5014153;28;20186;-72
2022/12/24 08:11:27;;;;;;;16.27;9.13;;;;;;;5.63;nan;-23974.03;5013010;28;20182;-72
2022/12/24 08:13:52;;;;;;;18.07;9.43;;;;;;;6.02;nan;-23984.97;5013939;28;20508;-71
2022/12/24 08:16:18;;;;;;;15.90;9.00;;;;;;;5.65;nan;-23974.47;5013627;28;20560;-71
2022/12/24 08:18:43;;;;;;;17.50;9.37;;;;;;;5.87;nan;-23980.72;5014145;28;20182;-72
2022/12/24 08:21:09;;;;;;;13.60;8.63;;;;;;;5.97;nan;-23983.56;5014404;28;20194;-71
2022/12/24 08:23:36;;;;;;;17.73;9.37;;;;;;;6.24;nan;-23991.09;5013988;28;20215;-72
2022/12/24 08:26:01;;;;;;;15.43;7.87;;;;;;;6.15;nan;-23988.53;5013620;28;20203;-71
2022/12/24 08:28:27;;;;;;;19.23;8.63;;;;;;;6.28;nan;-23992.09;5012709;28;20282;-72
2022/12/24 08:30:53;;;;;;;14.43;7.90;;;;;;;5.91;nan;-23981.72;5013861;28;20628;-72
2022/12/24 08:33:18;;;;;;;16.93;7.87;;;;;;;6.27;nan;-23991.81;5013430;28;20180;-71
2022/12/24 08:35:49;;;;;;;16.17;9.60;;;;;;;6.05;nan;-23985.84;5013290;28;20180;-71
2022/12/24 08:38:15;;;;;;;15.20;7.80;;;;;;;6.25;nan;-23991.38;5013496;28;20665;-71
2022/12/24 08:40:41;;;;;;;20.63;8.60;;;;;;;6.47;nan;-23997.47;5013433;28;20612;-71
2022/12/24 08:43:07;;;;;;;19.20;7.87;;;;;;;6.50;nan;-23998.47;5012856;28;20187;-72
2022/12/24 08:45:32;;;;;;;14.63;8.07;;;;;;;6.00;nan;-23984.41;5013167;28;20200;-72
2022/12/24 08:47:59;;;;;;;14.87;7.33;;;;;;;6.06;nan;-23986.13;5012343;28;20676;-72
2022/12/24 08:50:24;;;;;;;16.80;7.23;;;;;;;5.87;nan;-23980.72;5013169;28;20183;-72
2022/12/24 08:52:50;;;;;;;12.47;7.33;;;;;;;5.65;nan;-23974.47;5013201;28;20191;-71
2022/12/24 08:55:15;;;;;;;11.63;6.57;;;;;;;6.16;nan;-23988.81;5012951;28;20165;-71
2022/12/24 08:57:41;;;;;;;10.47;6.07;;;;;;;6.29;nan;-23992.50;5013106;28;20669;-71
2022/12/24 09:00:08;;;;;;;8.10;5.77;;;;;;;5.89;nan;-23981.28;5013285;28;20172;-71
2022/12/24 09:02:34;;;;;;;11.30;6.80;;;;;;;5.72;nan;-23976.59;5013326;28;20176;-71
2022/12/24 09:04:59;;;;;;;9.43;6.30;;;;;;;6.06;nan;-23985.97;5012762;28;20200;-71
2022/12/24 09:07:25;;;;;;;9.20;6.00;;;;;;;6.05;nan;-23985.84;5013527;28;20215;-71
2022/12/24 09:09:50;;;;;;;9.60;6.10;;;;;;;5.97;nan;-23983.41;5013251;28;20515;-71
2022/12/24 09:12:15;;;;;;;10.47;6.23;;;;;;;5.98;nan;-23983.84;5012747;28;20194;-71
2022/12/24 09:14:41;;;;;;;13.97;6.17;;;;;;;6.12;nan;-23987.81;5012704;28;20179;-71
2022/12/24 09:17:06;;;;;;;14.97;6.87;;;;;;;5.86;nan;-23980.44;5013172;28;20582;-71
2022/12/24 09:19:31;;;;;;;11.03;6.20;;;;;;;6.07;nan;-23986.25;5013188;28;20697;-71
2022/12/24 09:21:57;;;;;;;8.70;5.40;;;;;;;6.52;nan;-23998.91;5012700;28;20175;-71
2022/12/24 09:24:22;;;;;;;11.50;5.57;;;;;;;6.92;nan;-24010.25;5013282;28;20599;-72
2022/12/24 09:26:48;;;;;;;14.07;6.33;;;;;;;6.97;nan;-24011.66;5013052;28;20604;-71
2022/12/24 09:29:15;;;;;;;10.53;6.00;;;;;;;7.03;nan;-24013.22;5013016;28;20172;-71
2022/12/24 09:31:41;;;;;;;13.73;5.97;;;;;;;7.02;nan;-24013.09;5012767;28;20176;-71
2022/12/24 09:34:06;;;;;;;10.07;6.40;;;;;;;7.46;nan;-24025.44;5012549;28;20532;-72
2022/12/24 09:36:33;;;;;;;10.20;5.97;;;;;;;6.62;nan;-24001.88;5012756;28;20179;-71
2022/12/24 09:38:58;;;;;;;10.33;6.40;;;;;;;7.88;nan;-24037.19;5012236;28;20663;-72
2022/12/24 09:41:45;;;;;;;16.20;7.10;;;;;;;8.04;nan;-24041.44;5012728;28;20180;-72
2022/12/24 09:44:25;;;;;;;12.80;6.13;;;;;;;7.84;nan;-24036.06;5012328;28;20635;-70
2022/12/24 09:46:52;;;;;;;17.27;6.17;;;;;;;8.03;nan;-24041.28;5012344;28;20191;-70
2022/12/24 09:49:26;;;;;;;16.07;8.70;;;;;;;8.33;nan;-24049.78;5012134;28;20180;-71
2022/12/24 09:51:59;;;;;;;12.33;6.83;;;;;;;8.54;nan;-24055.47;5012489;28;20259;-70
2022/12/24 09:54:57;;;;;;;17.60;6.50;;;;;;;8.70;nan;-24059.97;5012429;28;20188;-70
2022/12/24 09:57:28;;;;;;;10.90;6.37;;;;;;;8.55;nan;-24055.75;5006918;28;20721;-71
2022/12/24 09:59:54;;;;;;;15.27;7.97;;;;;;;8.85;nan;-24064.38;5012533;28;20267;-71
2022/12/24 10:02:20;;;;;;;10.83;6.20;;;;;;;8.79;nan;-24062.66;5012335;28;20172;-71
2022/12/24 10:04:47;;;;;;;11.53;6.20;;;;;;;9.25;nan;-24075.41;5012205;28;20315;-71
2022/12/24 10:07:33;;;;;;;18.98;7.57;;;;;;;9.20;nan;-24074.00;5011783;28;20223;-71
2022/12/24 10:10:17;;;;;;;13.82;7.07;;;;;;;9.48;nan;-24081.91;5012557;28;20175;-72
2022/12/24 10:13:09;;;;;;;18.50;7.75;;;;;;;9.12;nan;-24071.88;5011990;28;20254;-72
2022/12/24 10:16:12;;;;;;;17.17;6.87;;;;;;;8.84;nan;-24063.94;5011973;28;20200;-71
2022/12/24 10:19:01;;;;;;;14.05;6.90;;;;;;;8.86;nan;-24064.50;5012436;28;20187;-72
2022/12/24 10:21:44;;;;;;;15.10;6.47;;;;;;;9.39;nan;-24079.34;5012163;28;20226;-71
2022/12/24 10:24:32;;;;;;;13.90;7.17;;;;;;;9.14;nan;-24072.28;5012018;28;20595;-71
2022/12/24 10:27:14;;;;;;;14.38;6.50;;;;;;;9.57;nan;-24084.44;5011783;28;20528;-71
2022/12/24 10:29:45;;;;;;;12.60;6.90;;;;;;;8.84;nan;-24064.09;5011987;28;20156;-70
2022/12/24 10:32:31;;;;;;;14.63;7.72;;;;;;;9.10;nan;-24071.16;5012090;28;20546;-70
2022/12/24 10:35:03;;;;;;;11.65;7.15;;;;;;;8.71;nan;-24060.41;5010856;28;20525;-71
2022/12/24 10:37:29;;;;;;;12.55;6.93;;;;;;;8.99;nan;-24068.19;5011994;28;20224;-70
2022/12/24 10:39:56;;;;;;;18.48;7.32;;;;;;;9.41;nan;-24079.78;5011917;28;20175;-71
2022/12/24 10:42:26;;;;;;;13.40;7.53;;;;;;;9.69;nan;-24087.84;5012229;28;20258;-71
2022/12/24 10:45:00;;;;;;;14.40;7.68;;;;;;;10.12;nan;-24099.69;5011426;28;20192;-71
2022/12/24 10:47:26;;;;;;;18.52;8.10;;;;;;;9.87;nan;-24092.78;5011971;28;20233;-71
2022/12/24 10:49:54;;;;;;;13.07;7.38;;;;;;;;;;5011737;28;20671;-71
2022/12/24 10:52:28;;;;;;;15.68;7.43;;;;;;;10.28;nan;-24104.22;5011706;28;20176;-71
2022/12/24 10:55:10;;;;;;;16.23;7.05;;;;;;;10.02;nan;-24097.03;5011681;28;20671;-70
2022/12/24 10:57:37;;;;;;;16.02;7.45;;;;;;;10.37;nan;-24106.75;5012001;28;20560;-71
2022/12/24 11:00:05;;;;;;;13.65;7.60;;;;;;;10.50;nan;-24110.44;5015589;28;20167;-71
2022/12/24 11:02:36;;;;;;;14.88;6.97;;;;;;;10.41;nan;-24107.75;5014086;28;20643;-71
2022/12/24 11:05:06;;;;;;;12.32;6.88;;;;;;;10.84;nan;-24119.75;5015593;28;20265;-71
2022/12/24 11:07:32;;;;;;;10.75;6.22;;;;;;;10.73;nan;-24116.63;5015128;28;20179;-72
2022/12/24 11:10:03;;;;;;;15.80;7.20;;;;;;;10.91;nan;-24121.84;5015569;28;20183;-71
2022/12/24 11:12:32;;;;;;;13.95;7.35;;;;;;;10.64;nan;-24114.25;5015249;28;20172;-71
2022/12/24 11:15:15;;;;;;;16.13;7.22;;;;;;;10.67;nan;-24114.94;5015359;28;20172;-71
2022/12/24 11:17:40;;;;;;;9.68;6.57;;;;;;;10.58;nan;-24112.56;5020346;28;20168;-71
2022/12/24 11:20:16;;;;;;;11.02;6.65;;;;;;;10.36;nan;-24106.34;5014898;28;20188;-71
2022/12/24 11:22:48;;;;;;;18.08;6.28;;;;;;;10.40;nan;-24107.63;4994673;28;20549;-71
2022/12/24 11:25:37;;;;;;;13.80;6.78;;;;;;;10.30;nan;-24104.66;5001744;28;20231;-72
2022/12/24 11:28:31;;;;;;;13.38;7.20;;;;;;;10.33;nan;-24105.63;5015373;28;20226;-71
2022/12/24 11:31:17;;;;;;;17.83;7.63;;;;;;;10.35;nan;-24106.19;5014665;28;20230;-71
2022/12/24 11:33:48;;;;;;;14.98;7.45;;;;;;;10.13;nan;-24100.13;5015086;28;20183;-71
2022/12/24 11:36:15;;;;;;;16.42;9.13;;;;;;;10.03;nan;-24097.16;5013542;28;20695;-72
2022/12/24 11:38:40;;;;;;;17.02;9.15;;;;;;;10.33;nan;-24105.50;5015134;28;20172;-71
2022/12/24 11:41:11;;;;;;;20.77;8.68;;;;;;;10.21;nan;-24102.09;5013327;28;20198;-71
2022/12/24 11:43:45;;;;;;;23.55;10.25;;;;;;;10.30;nan;-24104.66;5015109;28;20199;-71
2022/12/24 11:46:35;;;;;;;23.80;11.50;;;;;;;10.16;nan;-24100.84;5013315;28;20691;-71
2022/12/24 11:49:12;;;;;;;14.98;9.02;;;;;;;10.44;nan;-24108.59;5015115;28;20651;-71
2022/12/24 11:51:39;;;;;;;23.15;9.75;;;;;;;10.37;nan;-24106.63;5014704;28;20184;-71
2022/12/24 11:54:28;;;;;;;25.45;9.85;;;;;;;10.61;nan;-24113.53;5019474;28;20188;-70
2022/12/24 11:56:57;;;;;;;19.08;10.43;;;;;;;10.81;nan;-24119.03;5014809;28;20543;-71